Time;durP1;ratioP1;P1;durP2;ratioP2;P2;SDS_P1;SDS_P2;PMS_P1;PMS_P2;Temp;Humidity;BMP_temperature;BMP_pressure;BME280_temperature;BME280_humidity;BME280_pressure;Samples;Min_cycle;Max_cycle;Signal;HPM_P1;HPM_P2
2022/09/10 00:01:39;;;;;;;8.50;6.00;;;;;;;19.02;86.22;100963.04;107721;1243;62482;-72
2022/09/10 00:04:14;;;;;;;7.50;5.90;;;;;;;19.00;86.45;100960.59;107820;1244;57876;-72
2022/09/10 00:06:43;;;;;;;8.10;6.30;;;;;;;19.01;86.74;100959.94;107792;1244;72947;-73
2022/09/10 00:09:13;;;;;;;8.60;6.30;;;;;;;19.01;86.47;100956.81;107817;1244;61850;-71
2022/09/10 00:11:44;;;;;;;8.00;5.90;;;;;;;19.00;86.58;100957.91;107858;1244;59934;-72
2022/09/10 00:14:19;;;;;;;8.90;5.60;;;;;;;18.98;85.99;100953.63;107617;1247;62479;-70
2022/09/10 00:16:48;;;;;;;7.40;6.00;;;;;;;18.99;85.56;100947.50;107779;1244;60510;-71
2022/09/10 00:19:18;;;;;;;8.10;5.20;;;;;;;19.00;85.45;100945.30;107748;1245;59635;-72
2022/09/10 00:21:49;;;;;;;6.80;5.50;;;;;;;19.00;85.12;100946.77;107831;1244;72956;-72
2022/09/10 00:24:18;;;;;;;5.60;4.70;;;;;;;18.99;84.45;100939.73;107814;1244;71956;-72
2022/09/10 00:26:47;;;;;;;6.50;5.40;;;;;;;18.98;84.66;100937.32;107787;1244;70840;-70
2022/09/10 00:29:17;;;;;;;7.50;5.20;;;;;;;18.98;84.48;100937.66;107788;1244;73885;-72
2022/09/10 00:31:46;;;;;;;6.20;5.00;;;;;;;19.00;84.20;100941.92;107806;1244;63084;-71
2022/09/10 00:34:16;;;;;;;10.60;5.50;;;;;;;18.99;83.83;100940.35;107659;1244;57909;-71
2022/09/10 00:36:45;;;;;;;8.10;5.10;;;;;;;18.99;84.04;100937.71;107653;1244;74669;-72
2022/09/10 00:39:17;;;;;;;7.00;5.40;;;;;;;18.99;84.17;100936.55;107705;1244;73294;-72
2022/09/10 00:41:48;;;;;;;5.80;5.30;;;;;;;19.00;83.61;100938.55;107769;1244;69754;-72
2022/09/10 00:44:38;;;;;;;7.30;5.70;;;;;;;18.99;83.49;100939.20;107721;1244;74256;-73
2022/09/10 00:47:33;;;;;;;8.40;5.20;;;;;;;19.03;83.52;100937.86;107739;1244;63404;-73
2022/09/10 00:50:16;;;;;;;7.60;5.30;;;;;;;19.02;83.82;100941.17;107754;1244;60963;-73
2022/09/10 00:52:46;;;;;;;7.00;5.60;;;;;;;19.00;83.37;100942.75;107811;1244;72706;-72
2022/09/10 00:55:16;;;;;;;5.80;5.10;;;;;;;19.03;83.44;100946.30;106358;1244;1823588;-71
2022/09/10 00:57:48;;;;;;;8.90;5.50;;;;;;;19.05;83.02;100943.80;107888;1244;60332;-72
2022/09/10 01:00:17;;;;;;;6.20;4.60;;;;;;;19.06;83.41;100942.86;107783;1244;73139;-73
2022/09/10 01:02:47;;;;;;;5.80;4.60;;;;;;;19.06;83.30;100940.03;107810;1244;58755;-71
2022/09/10 01:05:17;;;;;;;7.50;4.70;;;;;;;19.04;82.97;100935.79;107622;1245;61299;-71
2022/09/10 01:07:46;;;;;;;7.30;5.10;;;;;;;19.03;82.72;100939.62;107804;1246;76201;-71
2022/09/10 01:10:27;;;;;;;6.70;4.80;;;;;;;19.00;82.77;100938.02;108242;1241;72405;-71
2022/09/10 01:13:04;;;;;;;9.30;5.50;;;;;;;19.01;83.34;100937.57;107931;1244;70985;-70
2022/09/10 01:16:04;;;;;;;6.50;4.90;;;;;;;19.03;82.99;100932.80;107909;1244;74741;-71
2022/09/10 01:19:13;;;;;;;6.80;4.80;;;;;;;18.97;83.01;100930.85;107667;1244;59605;-72
2022/09/10 01:21:51;;;;;;;6.30;4.40;;;;;;;18.98;82.37;100932.77;107554;1247;59547;-69
2022/09/10 01:24:25;;;;;;;8.50;4.80;;;;;;;18.98;82.06;100930.07;107631;1244;74170;-72
2022/09/10 01:27:35;;;;;;;8.10;5.00;;;;;;;18.98;81.82;100925.20;107583;1247;62044;-71
2022/09/10 01:30:26;;;;;;;5.70;4.30;;;;;;;19.00;81.58;100926.00;107745;1244;70580;-72
2022/09/10 01:33:09;;;;;;;4.60;4.00;;;;;;;19.02;80.93;100920.49;107740;1244;73389;-72
2022/09/10 01:35:50;;;;;;;4.60;4.10;;;;;;;19.07;80.87;100921.06;107823;1244;62167;-72
2022/09/10 01:38:33;;;;;;;5.40;4.10;;;;;;;19.07;80.62;100914.20;107698;1243;59915;-69
2022/09/10 01:41:04;;;;;;;6.50;4.50;;;;;;;19.03;80.01;100914.00;107850;1244;63624;-70
2022/09/10 01:43:37;;;;;;;6.30;4.00;;;;;;;19.08;79.56;100913.88;107547;1245;61675;-70
2022/09/10 01:46:24;;;;;;;7.20;4.00;;;;;;;19.09;79.51;100911.64;107666;1244;69856;-70
2022/09/10 01:49:35;;;;;;;5.50;4.40;;;;;;;19.10;79.81;100909.41;107793;1244;64806;-71
2022/09/10 01:52:50;;;;;;;6.00;4.10;;;;;;;19.11;79.37;100905.82;107793;1243;60079;-71
2022/09/10 01:55:47;;;;;;;6.50;4.30;;;;;;;19.09;79.47;100903.36;107740;1244;59609;-71
2022/09/10 01:58:35;;;;;;;6.20;4.30;;;;;;;19.10;79.76;100905.61;107783;1244;64079;-72
2022/09/10 02:01:42;;;;;;;7.40;4.00;;;;;;;19.08;79.89;100907.50;107759;1244;71457;-73
2022/09/10 02:04:14;;;;;;;7.90;4.40;;;;;;;19.01;80.25;100909.13;107822;1244;60770;-72
2022/09/10 02:06:47;;;;;;;4.70;4.30;;;;;;;19.01;80.78;100907.17;107593;1245;74436;-73
2022/09/10 02:09:18;;;;;;;6.20;3.90;;;;;;;19.01;80.26;100910.36;107804;1244;63881;-72
2022/09/10 02:11:55;;;;;;;6.00;4.40;;;;;;;18.96;81.16;100910.73;107704;1245;58134;-70
2022/09/10 02:14:54;;;;;;;5.50;4.60;;;;;;;18.99;81.34;100907.46;107903;1244;63801;-70
2022/09/10 02:18:12;;;;;;;6.60;4.80;;;;;;;18.94;81.87;100904.37;107849;1244;72538;-71
2022/09/10 02:20:41;;;;;;;6.70;4.40;;;;;;;18.91;81.89;100905.59;107587;1247;59583;-76
2022/09/10 02:23:17;;;;;;;7.80;4.60;;;;;;;18.92;82.02;100904.60;107761;1244;62485;-75
2022/09/10 02:25:48;;;;;;;7.40;5.00;;;;;;;18.90;81.95;100899.51;107520;1244;61352;-72
2022/09/10 02:28:17;;;;;;;8.40;4.40;;;;;;;18.93;81.77;100899.95;107629;1245;61007;-71
2022/09/10 02:30:47;;;;;;;9.20;4.40;;;;;;;18.91;81.55;100896.46;107542;1246;64588;-72
2022/09/10 02:33:17;;;;;;;7.10;4.30;;;;;;;18.90;81.60;100892.15;107648;1244;72398;-72
2022/09/10 02:35:46;;;;;;;5.50;4.30;;;;;;;18.89;81.95;100894.66;107606;1244;70671;-71
2022/09/10 02:38:17;;;;;;;8.60;5.40;;;;;;;18.90;82.03;100893.41;107790;1244;73469;-70
2022/09/10 02:40:48;;;;;;;8.20;4.70;;;;;;;18.89;82.40;100893.33;107775;1244;62221;-74
2022/09/10 02:43:17;;;;;;;8.00;4.40;;;;;;;18.86;81.95;100890.80;107588;1244;59743;-72
2022/09/10 02:45:46;;;;;;;7.90;5.00;;;;;;;18.89;82.22;100893.67;107685;1244;63861;-73
2022/09/10 02:48:17;;;;;;;5.90;4.70;;;;;;;18.87;82.04;100888.44;107629;1244;61547;-71
2022/09/10 02:50:45;;;;;;;9.30;4.70;;;;;;;18.86;81.06;100886.88;107695;1244;69750;-72
2022/09/10 02:53:14;;;;;;;6.30;4.40;;;;;;;18.80;81.36;100885.41;107759;1244;63908;-73
2022/09/10 02:55:45;;;;;;;5.70;4.50;;;;;;;18.83;81.26;100883.86;107683;1244;59511;-69
2022/09/10 02:58:15;;;;;;;7.20;4.80;;;;;;;18.86;80.86;100879.20;107655;1247;59550;-73
2022/09/10 03:00:44;;;;;;;6.40;4.60;;;;;;;18.89;80.90;100873.55;107693;1246;73566;-73
2022/09/10 03:03:15;;;;;;;7.70;4.80;;;;;;;18.87;81.06;100873.02;107838;1244;61667;-70
2022/09/10 03:05:43;;;;;;;6.70;4.20;;;;;;;18.85;81.71;100867.62;107568;1244;69762;-71
2022/09/10 03:08:14;;;;;;;8.90;4.60;;;;;;;18.82;82.12;100864.53;107941;1244;64145;-71
2022/09/10 03:10:45;;;;;;;6.00;4.60;;;;;;;18.86;82.31;100861.70;107682;1245;61041;-72
2022/09/10 03:13:15;;;;;;;5.90;4.50;;;;;;;18.79;82.72;100859.56;107673;1244;59096;-71
2022/09/10 03:15:44;;;;;;;5.40;4.70;;;;;;;18.75;83.06;100860.14;107751;1244;73127;-73
2022/09/10 03:18:14;;;;;;;6.20;4.50;;;;;;;18.80;82.71;100857.38;107857;1244;61709;-72
2022/09/10 03:20:43;;;;;;;7.30;4.70;;;;;;;18.77;82.56;100856.08;107766;1244;59216;-74
2022/09/10 03:23:12;;;;;;;6.20;4.70;;;;;;;18.78;82.53;100856.48;107638;1244;74313;-73
2022/09/10 03:25:40;;;;;;;8.70;4.60;;;;;;;18.78;81.76;100851.89;107512;1244;61207;-72
2022/09/10 03:28:09;;;;;;;10.90;5.10;;;;;;;18.79;81.83;100848.29;107511;1247;59617;-72
2022/09/10 03:30:39;;;;;;;9.30;5.00;;;;;;;18.80;82.14;100850.64;107630;1244;63004;-73
2022/09/10 03:33:10;;;;;;;6.60;4.60;;;;;;;18.79;82.53;100844.09;107756;1244;62072;-73
2022/09/10 03:35:40;;;;;;;7.50;4.80;;;;;;;18.77;82.95;100840.14;107593;1245;70601;-72
2022/09/10 03:38:10;;;;;;;6.30;5.00;;;;;;;18.76;83.23;100836.53;107292;1247;63747;-72
2022/09/10 03:40:40;;;;;;;6.70;4.80;;;;;;;18.72;83.66;100831.66;107583;1244;59663;-70
2022/09/10 03:43:11;;;;;;;5.00;4.50;;;;;;;18.74;83.58;100830.27;108118;1244;61276;-69
2022/09/10 03:45:41;;;;;;;5.50;4.50;;;;;;;18.74;83.79;100825.02;107791;1244;64482;-73
2022/09/10 03:48:10;;;;;;;5.80;4.40;;;;;;;18.71;84.07;100829.50;107520;1244;60789;-72
2022/09/10 03:50:38;;;;;;;7.80;4.90;;;;;;;18.73;84.40;100830.40;107603;1244;70869;-72
2022/09/10 03:53:16;;;;;;;5.60;4.70;;;;;;;18.70;84.85;100828.37;107640;1244;63152;-70
2022/09/10 03:55:47;;;;;;;7.00;4.90;;;;;;;18.69;84.91;100825.30;107393;1244;59558;-71
2022/09/10 03:58:17;;;;;;;11.40;5.00;;;;;;;18.68;85.14;100827.90;107520;1247;59574;-70
2022/09/10 04:00:46;;;;;;;6.60;5.00;;;;;;;18.72;84.89;100832.61;107523;1244;63769;-69
2022/09/10 04:03:15;;;;;;;7.30;5.50;;;;;;;18.70;85.69;100835.52;107642;1244;72318;-71
2022/09/10 04:05:44;;;;;;;11.50;6.20;;;;;;;18.69;85.76;100834.45;107389;1245;70099;-72
2022/09/10 04:08:14;;;;;;;8.40;5.40;;;;;;;18.71;85.47;100835.33;107549;1244;63085;-71
2022/09/10 04:10:43;;;;;;;7.20;5.50;;;;;;;18.71;85.24;100835.39;107635;1247;59673;-71
2022/09/10 04:13:12;;;;;;;7.40;5.60;;;;;;;18.74;85.11;100833.26;107702;1245;60767;-72
2022/09/10 04:15:45;;;;;;;6.30;5.30;;;;;;;18.78;84.87;100833.34;107801;1244;73531;-70
2022/09/10 04:18:14;;;;;;;7.80;5.10;;;;;;;18.82;84.69;100831.42;107775;1244;72569;-73
2022/09/10 04:20:47;;;;;;;6.50;4.90;;;;;;;18.88;84.40;100831.31;107575;1244;70831;-71
2022/09/10 04:23:15;;;;;;;;;;;;;;;18.87;84.45;100835.44;107672;1244;74260;-68
2022/09/10 04:25:45;;;;;;;8.10;4.90;;;;;;;18.89;84.31;100838.23;107866;1244;62998;-69
2022/09/10 04:28:15;;;;;;;8.50;5.30;;;;;;;18.91;83.99;100840.31;107728;1245;59533;-75
2022/09/10 04:30:46;;;;;;;10.10;5.70;;;;;;;18.95;83.96;100838.80;107777;1244;74533;-71
2022/09/10 04:33:16;;;;;;;6.20;5.30;;;;;;;19.01;84.02;100839.38;107578;1244;71854;-70
2022/09/10 04:35:45;;;;;;;6.70;5.20;;;;;;;18.98;83.77;100841.55;107850;1244;59364;-71
2022/09/10 04:38:14;;;;;;;7.40;5.30;;;;;;;18.92;84.08;100842.70;107686;1244;62593;-69
2022/09/10 04:40:46;;;;;;;10.70;5.80;;;;;;;18.94;84.57;100845.11;107633;1246;59505;-72
2022/09/10 04:43:16;;;;;;;12.20;6.20;;;;;;;18.96;84.35;100846.48;107838;1244;58340;-72
2022/09/10 04:45:45;;;;;;;7.10;5.30;;;;;;;18.94;84.33;100840.92;107893;1244;63748;-74
2022/09/10 04:48:14;;;;;;;9.00;6.20;;;;;;;18.96;84.49;100843.86;107801;1244;71286;-71
2022/09/10 04:50:43;;;;;;;8.80;5.40;;;;;;;19.00;84.67;100840.95;107907;1244;60441;-73
2022/09/10 04:53:39;;;;;;;11.80;5.40;;;;;;;19.02;84.58;100845.34;107768;1244;74330;-70
2022/09/10 04:56:09;;;;;;;10.20;6.10;;;;;;;19.03;84.62;100843.58;107599;1246;59152;-73
2022/09/10 04:58:39;;;;;;;9.30;6.60;;;;;;;19.06;84.57;100842.46;107658;1244;61413;-70
2022/09/10 05:01:10;;;;;;;8.00;6.10;;;;;;;19.08;84.84;100849.45;107522;1244;63432;-74
2022/09/10 05:03:39;;;;;;;12.50;6.40;;;;;;;19.14;84.52;100853.88;107655;1246;61985;-71
2022/09/10 05:06:09;;;;;;;15.60;7.50;;;;;;;19.14;84.73;100855.85;107801;1243;59267;-70
2022/09/10 05:08:39;;;;;;;15.90;10.00;;;;;;;19.19;84.76;100856.42;107604;1244;63872;-73
2022/09/10 05:11:10;;;;;;;12.10;7.00;;;;;;;19.21;84.51;100851.78;107611;1245;59119;-70
2022/09/10 05:13:39;;;;;;;8.10;6.00;;;;;;;19.25;84.79;100848.54;107815;1244;60231;-70
2022/09/10 05:16:07;;;;;;;42.90;22.40;;;;;;;19.28;84.68;100851.36;107789;1244;75126;-72
2022/09/10 05:18:38;;;;;;;15.60;8.80;;;;;;;19.30;84.59;100852.39;107777;1244;63852;-71
2022/09/10 05:21:09;;;;;;;16.50;10.60;;;;;;;19.31;84.85;100847.46;110015;1244;60314;-72
2022/09/10 05:23:39;;;;;;;9.40;6.60;;;;;;;19.35;84.66;100848.69;109832;1244;73042;-74
2022/09/10 05:26:08;;;;;;;8.90;6.40;;;;;;;19.33;84.76;100851.17;110088;1244;62988;-74
2022/09/10 05:28:37;;;;;;;9.70;6.90;;;;;;;19.36;85.00;100847.55;109147;1243;59560;-74
2022/09/10 05:31:08;;;;;;;11.60;8.50;;;;;;;19.36;85.14;100849.08;108012;1244;74246;-71
2022/09/10 05:33:39;;;;;;;12.50;8.30;;;;;;;19.38;85.32;100844.35;109147;1243;61140;-73
2022/09/10 05:36:12;;;;;;;17.10;10.50;;;;;;;19.43;85.25;100840.29;109133;1242;59209;-70
2022/09/10 05:38:41;;;;;;;9.60;6.70;;;;;;;19.46;85.21;100838.34;107714;1244;73973;-73
2022/09/10 05:41:11;;;;;;;12.00;7.60;;;;;;;19.41;85.52;100837.80;107518;1244;62207;-71
2022/09/10 05:43:44;;;;;;;13.10;7.90;;;;;;;19.42;85.61;100838.38;107555;1244;58341;-72
2022/09/10 05:46:14;;;;;;;10.20;7.70;;;;;;;19.46;85.64;100832.88;107622;1244;63034;-76
2022/09/10 05:48:45;;;;;;;;;;;;;;;19.49;85.53;100831.11;107940;1244;72245;-72
2022/09/10 05:51:16;;;;;;;12.60;9.30;;;;;;;19.51;85.40;100829.98;107551;1244;71017;-74
2022/09/10 05:53:45;;;;;;;12.30;7.40;;;;;;;19.49;85.45;100828.10;107531;1245;73339;-72
2022/09/10 05:56:13;;;;;;;10.50;6.30;;;;;;;19.47;85.63;100828.63;107574;1244;62870;-71
2022/09/10 05:58:46;;;;;;;11.50;6.90;;;;;;;19.48;85.66;100826.57;107786;1244;59322;-72
2022/09/10 06:01:15;;;;;;;13.70;7.20;;;;;;;19.51;85.59;100824.33;107683;1244;63451;-72
2022/09/10 06:03:44;;;;;;;10.50;8.20;;;;;;;19.53;85.60;100821.27;107863;1244;63396;-76
2022/09/10 06:06:14;;;;;;;10.50;8.90;;;;;;;19.51;85.39;100814.95;107967;1244;70559;-71
2022/09/10 06:08:52;;;;;;;10.60;8.40;;;;;;;19.50;85.81;100813.52;107826;1244;73888;-72
2022/09/10 06:11:35;;;;;;;13.40;8.50;;;;;;;19.54;85.86;100814.80;107821;1244;63859;-75
2022/09/10 06:14:06;;;;;;;10.10;8.20;;;;;;;19.52;85.95;100815.05;108046;1244;61578;-82
2022/09/10 06:16:35;;;;;;;13.10;8.10;;;;;;;19.48;86.12;100811.58;108025;1244;64424;-75
2022/09/10 06:19:04;;;;;;;15.80;8.20;;;;;;;19.53;86.07;100807.21;107786;1244;60876;-76
2022/09/10 06:21:34;;;;;;;10.00;8.40;;;;;;;19.57;86.10;100801.64;107562;1244;70572;-75
2022/09/10 06:24:03;;;;;;;15.10;11.80;;;;;;;19.57;86.28;100787.96;107581;1244;73835;-73
2022/09/10 06:26:35;;;;;;;14.60;7.60;;;;;;;19.67;86.10;100781.48;107761;1244;59553;-74
2022/09/10 06:29:08;;;;;;;11.10;7.40;;;;;;;19.79;86.05;100784.03;107822;1244;59918;-72
2022/09/10 06:31:38;;;;;;;13.80;8.10;;;;;;;20.00;85.38;100780.88;107819;1242;63016;-73
2022/09/10 06:34:11;;;;;;;8.10;7.30;;;;;;;20.26;84.60;100781.52;107938;1243;72172;-74
2022/09/10 06:36:40;;;;;;;11.20;8.40;;;;;;;20.45;83.44;100778.82;107747;1244;70400;-74
2022/09/10 06:39:09;;;;;;;11.60;7.70;;;;;;;20.60;83.01;100780.67;108097;1244;63624;-72
2022/09/10 06:41:48;;;;;;;11.20;7.40;;;;;;;20.80;81.85;100782.42;107885;1244;63242;-73
2022/09/10 06:45:10;;;;;;;9.00;7.30;;;;;;;20.98;81.10;100778.35;107440;1244;59570;-74
2022/09/10 06:48:26;;;;;;;11.30;8.20;;;;;;;20.96;80.83;100770.21;107428;1246;74118;-76
2022/09/10 06:51:16;;;;;;;12.80;7.80;;;;;;;20.99;80.80;100764.10;107939;1244;62510;-73
2022/09/10 06:53:45;;;;;;;13.20;9.30;;;;;;;21.03;80.43;100763.85;107990;1244;69670;-72
2022/09/10 06:56:18;;;;;;;14.10;8.70;;;;;;;21.01;80.46;100765.82;107809;1246;63877;-74
2022/09/10 06:58:47;;;;;;;14.10;7.70;;;;;;;21.05;80.40;100773.35;107616;1244;59597;-74
2022/09/10 07:01:21;;;;;;;10.50;7.60;;;;;;;21.08;80.32;100781.30;107603;1246;59541;-77
2022/09/10 07:03:59;;;;;;;9.10;7.90;;;;;;;20.88;81.13;100784.99;107768;1244;73979;-73
2022/09/10 07:06:33;;;;;;;10.30;8.20;;;;;;;20.76;81.45;100779.83;107711;1244;72595;-76
2022/09/10 07:09:08;;;;;;;10.20;8.80;;;;;;;20.72;81.75;100781.20;107830;1244;59664;-82
2022/09/10 07:11:48;;;;;;;11.50;8.20;;;;;;;20.74;81.65;100780.24;107968;1244;63671;-71
2022/09/10 07:14:18;;;;;;;12.00;7.70;;;;;;;20.84;81.08;100776.59;107818;1244;62335;-70
2022/09/10 07:16:50;;;;;;;9.40;7.60;;;;;;;21.00;80.30;100773.77;107977;1244;58988;-70
2022/09/10 07:19:20;;;;;;;10.80;8.30;;;;;;;21.01;80.45;100773.98;107839;1244;74926;-68
2022/09/10 07:21:50;;;;;;;8.70;7.50;;;;;;;21.08;79.78;100766.10;107658;1244;63965;-68
2022/09/10 07:24:20;;;;;;;11.90;7.90;;;;;;;21.24;78.95;100769.36;107627;1244;71313;-66
2022/09/10 07:27:09;;;;;;;9.90;7.50;;;;;;;21.47;78.11;100764.57;107876;1244;63772;-69
2022/09/10 07:29:41;;;;;;;9.50;7.70;;;;;;;21.61;77.35;100761.48;107772;1244;59709;-72
2022/09/10 07:32:14;;;;;;;11.60;7.10;;;;;;;21.75;76.84;100763.73;107811;1246;59613;-70
2022/09/10 07:34:45;;;;;;;10.30;7.20;;;;;;;21.77;76.46;100759.55;107738;1244;64723;-71
2022/09/10 07:37:17;;;;;;;11.50;7.10;;;;;;;21.82;75.86;100760.92;107772;1244;72591;-70
2022/09/10 07:39:47;;;;;;;8.40;6.80;;;;;;;21.83;75.53;100757.58;107678;1244;71333;-70
2022/09/10 07:42:16;;;;;;;9.30;6.70;;;;;;;22.00;75.05;100755.80;107903;1244;64131;-72
2022/09/10 07:44:46;;;;;;;9.20;6.60;;;;;;;21.85;75.24;100753.08;107898;1244;64595;-74
2022/09/10 07:47:16;;;;;;;11.20;6.30;;;;;;;21.92;74.79;100750.02;108047;1244;59583;-68
2022/09/10 07:49:45;;;;;;;11.00;6.30;;;;;;;22.09;74.32;100749.42;107668;1245;74711;-71
2022/09/10 07:52:16;;;;;;;10.60;6.00;;;;;;;22.22;72.68;100742.46;107869;1244;72762;-70
2022/09/10 07:54:54;;;;;;;13.30;5.70;;;;;;;22.36;71.95;100741.27;107899;1245;59453;-72
2022/09/10 07:57:24;;;;;;;8.70;6.20;;;;;;;22.40;71.27;100731.84;107670;1246;74198;-73
2022/09/10 07:59:54;;;;;;;7.60;5.80;;;;;;;22.53;70.96;100735.73;107518;1246;62830;-85
2022/09/10 08:02:24;;;;;;;6.70;5.80;;;;;;;22.46;70.78;100734.75;107438;1246;60904;-75
2022/09/10 08:04:58;;;;;;;7.00;6.10;;;;;;;22.40;70.68;100731.73;107725;1244;74633;-76
2022/09/10 08:07:27;;;;;;;7.20;6.20;;;;;;;22.44;70.25;100739.47;107907;1244;61217;-71
2022/09/10 08:09:56;;;;;;;9.10;6.10;;;;;;;22.60;69.24;100737.80;107789;1244;70517;-76
2022/09/10 08:12:25;;;;;;;8.70;5.40;;;;;;;22.63;69.27;100744.56;107716;1247;62909;-75
2022/09/10 08:14:56;;;;;;;10.90;5.60;;;;;;;22.87;68.73;100738.93;107777;1244;59593;-76
2022/09/10 08:17:29;;;;;;;7.00;5.40;;;;;;;22.86;68.54;100735.88;107641;1247;59552;-73
2022/09/10 08:19:58;;;;;;;9.60;4.60;;;;;;;22.65;68.90;100733.66;107727;1246;65450;-72
2022/09/10 08:22:27;;;;;;;8.60;5.20;;;;;;;22.75;68.55;100742.02;107643;1244;72286;-75
2022/09/10 08:24:57;;;;;;;7.20;4.40;;;;;;;22.75;68.48;100735.49;107737;1244;59082;-74
2022/09/10 08:27:33;;;;;;;8.00;4.60;;;;;;;22.65;69.02;100741.06;107828;1244;74602;-71
2022/09/10 08:30:04;;;;;;;11.60;4.80;;;;;;;22.51;68.88;100732.18;107694;1244;63415;-75
2022/09/10 08:32:34;;;;;;;7.20;4.70;;;;;;;22.78;68.20;100726.73;107838;1244;62681;-78
2022/09/10 08:35:04;;;;;;;6.60;3.80;;;;;;;22.89;67.51;100722.52;107482;1244;76029;-77
2022/09/10 08:37:34;;;;;;;6.10;4.00;;;;;;;22.83;67.85;100720.27;107557;1244;74130;-79
2022/09/10 08:40:04;;;;;;;8.00;3.70;;;;;;;22.65;68.20;100712.84;107729;1244;70441;-77
2022/09/10 08:42:45;;;;;;;7.70;3.80;;;;;;;22.81;67.91;100706.20;107581;1247;72290;-74
2022/09/10 08:45:19;;;;;;;7.10;3.90;;;;;;;22.72;68.47;100703.20;107667;1244;59674;-74
2022/09/10 08:48:14;;;;;;;9.60;3.60;;;;;;;22.91;68.06;100710.42;107715;1245;57946;-76
2022/09/10 08:51:07;;;;;;;6.90;3.30;;;;;;;23.26;66.90;100707.66;107553;1244;74510;-69
2022/09/10 08:53:51;;;;;;;6.60;3.00;;;;;;;23.41;65.70;100698.46;107678;1244;70792;-81
2022/09/10 08:56:23;;;;;;;4.90;3.40;;;;;;;23.47;65.28;100700.30;107633;1244;59497;-80
2022/09/10 08:59:20;;;;;;;6.60;3.70;;;;;;;23.55;64.15;100692.84;107722;1244;73160;-84
2022/09/10 09:02:00;;;;;;;6.80;3.70;;;;;;;23.44;64.60;100689.86;107474;1247;58606;-80
2022/09/10 09:04:58;;;;;;;8.50;4.00;;;;;;;23.39;64.97;100685.27;108043;1244;60476;-79
2022/09/10 09:07:38;;;;;;;7.30;3.40;;;;;;;23.25;64.67;100683.92;108036;1244;75487;-72
2022/09/10 09:10:53;;;;;;;5.00;2.90;;;;;;;23.71;63.52;100684.80;108002;1244;72634;-74
2022/09/10 09:13:49;;;;;;;5.20;2.80;;;;;;;23.91;62.09;100678.17;107832;1244;69355;-70
2022/09/10 09:16:31;;;;;;;6.60;3.10;;;;;;;23.56;62.98;100678.70;107757;1245;65099;-69
2022/09/10 09:19:13;;;;;;;5.60;2.80;;;;;;;23.67;62.53;100669.85;107880;1244;59570;-66
2022/09/10 09:21:54;;;;;;;4.40;2.90;;;;;;;24.06;60.61;100659.43;107666;1247;57883;-67
2022/09/10 09:24:40;;;;;;;5.40;2.60;;;;;;;24.47;59.45;100656.55;107758;1244;62988;-71
2022/09/10 09:27:18;;;;;;;7.40;3.60;;;;;;;24.48;58.57;100654.02;107602;1244;71561;-71
2022/09/10 09:30:03;;;;;;;8.30;2.90;;;;;;;24.68;57.77;100649.64;107679;1244;71537;-70
2022/09/10 09:32:41;;;;;;;8.10;3.10;;;;;;;24.26;58.76;100637.33;107812;1244;74370;-68
2022/09/10 09:35:23;;;;;;;6.30;2.60;;;;;;;24.27;58.45;100636.45;107362;1244;62279;-69
2022/09/10 09:38:05;;;;;;;5.50;3.10;;;;;;;24.02;58.50;100630.06;107839;1244;61334;-71
2022/09/10 09:40:51;;;;;;;8.90;2.90;;;;;;;24.03;58.46;100626.83;107925;1244;74874;-65
2022/09/10 09:43:32;;;;;;;4.80;3.00;;;;;;;24.11;58.20;100622.34;107685;1246;61235;-66
2022/09/10 09:46:01;;;;;;;6.30;2.70;;;;;;;24.13;57.65;100615.81;107656;1244;69553;-65
2022/09/10 09:48:39;;;;;;;6.30;2.90;;;;;;;24.12;57.57;100607.55;107496;1244;74808;-66
2022/09/10 09:51:12;;;;;;;4.60;2.70;;;;;;;24.08;57.40;100608.27;107834;1247;59565;-68
2022/09/10 09:53:41;;;;;;;8.70;3.20;;;;;;;24.04;57.62;100607.83;107981;1244;59472;-68
2022/09/10 09:56:25;;;;;;;8.00;3.50;;;;;;;24.10;57.63;100608.05;107954;1244;64510;-68
2022/09/10 09:58:53;;;;;;;9.60;3.90;;;;;;;24.18;57.65;100611.34;107783;1244;72170;-66
2022/09/10 10:01:24;;;;;;;10.20;3.60;;;;;;;24.09;57.73;100607.02;107549;1247;60875;-65
2022/09/10 10:04:01;;;;;;;5.30;3.00;;;;;;;24.17;57.60;100612.00;107654;1244;64772;-64
2022/09/10 10:06:45;;;;;;;7.20;3.50;;;;;;;23.86;58.36;100617.00;107786;1244;59618;-65
2022/09/10 10:09:24;;;;;;;7.40;3.30;;;;;;;23.87;58.48;100609.83;107961;1244;59445;-69
2022/09/10 10:11:58;;;;;;;5.80;3.10;;;;;;;23.80;58.67;100605.04;108023;1244;63138;-66
2022/09/10 10:14:40;;;;;;;5.60;3.10;;;;;;;23.73;58.98;100601.85;107639;1247;60891;-67
2022/09/10 10:17:32;;;;;;;5.10;3.40;;;;;;;23.66;59.41;100603.67;107863;1245;70545;-69
2022/09/10 10:20:07;;;;;;;7.00;3.20;;;;;;;23.45;60.19;100606.17;107812;1244;62901;-69
2022/09/10 10:22:39;;;;;;;6.20;3.50;;;;;;;23.41;60.51;100605.53;107998;1244;61150;-68
2022/09/10 10:25:39;;;;;;;10.40;3.70;;;;;;;23.53;60.23;100597.19;107843;1244;57750;-69
2022/09/10 10:28:24;;;;;;;5.70;3.40;;;;;;;23.62;60.21;100599.17;108018;1244;74166;-68
2022/09/10 10:30:57;;;;;;;8.50;3.80;;;;;;;23.57;60.25;100597.95;108076;1244;63996;-68
2022/09/10 10:33:32;;;;;;;9.40;4.00;;;;;;;23.54;59.99;100600.89;107907;1244;70942;-70
2022/09/10 10:36:32;;;;;;;7.50;3.80;;;;;;;23.63;60.31;100597.66;107705;1244;74122;-70
2022/09/10 10:39:43;;;;;;;4.50;3.20;;;;;;;23.59;60.21;100589.02;107917;1241;59611;-71
2022/09/10 10:42:34;;;;;;;8.60;4.10;;;;;;;23.49;60.57;100585.89;107946;1244;61367;-71
2022/09/10 10:45:41;;;;;;;7.70;3.70;;;;;;;23.42;60.89;100576.13;107991;1243;73682;-72
2022/09/10 10:48:58;;;;;;;11.20;3.50;;;;;;;23.45;60.87;100574.77;107871;1244;72808;-72
2022/09/10 10:52:14;;;;;;;5.40;3.60;;;;;;;23.56;60.75;100567.35;107693;1245;59687;-69
2022/09/10 10:55:01;;;;;;;5.80;3.80;;;;;;;23.64;60.61;100562.15;107536;1247;73815;-70
2022/09/10 10:57:49;;;;;;;7.90;4.00;;;;;;;23.77;60.37;100556.73;107647;1247;58966;-70
2022/09/10 11:00:20;;;;;;;5.60;3.00;;;;;;;23.91;59.89;100544.71;107586;1247;60559;-69
2022/09/10 11:03:09;;;;;;;8.70;3.60;;;;;;;24.14;59.26;100541.27;107550;1247;74094;-70
2022/09/10 11:05:44;;;;;;;4.80;3.70;;;;;;;24.34;58.75;100538.17;107766;1247;72570;-71
2022/09/10 11:08:26;;;;;;;5.80;3.60;;;;;;;24.58;57.81;100538.55;107544;1247;60442;-73
2022/09/10 11:11:17;;;;;;;8.20;4.00;;;;;;;24.52;58.22;100536.33;107441;1249;64969;-70
2022/09/10 11:14:48;;;;;;;6.60;3.20;;;;;;;24.89;57.43;100534.89;107557;1247;59051;-71
2022/09/10 11:17:46;;;;;;;6.40;3.40;;;;;;;25.15;56.66;100526.54;106757;1255;61416;-70
2022/09/10 11:20:44;;;;;;;8.20;3.40;;;;;;;24.87;57.01;100516.56;107511;1246;74721;-71
2022/09/10 11:24:06;;;;;;;7.60;3.70;;;;;;;24.72;57.73;100516.09;107662;1247;61127;-71
2022/09/10 11:26:54;;;;;;;8.40;3.40;;;;;;;24.73;57.57;100509.73;106799;1254;60109;-70
2022/09/10 11:29:55;;;;;;;7.40;3.10;;;;;;;24.94;57.22;100511.08;107635;1246;73993;-73
2022/09/10 11:33:14;;;;;;;6.90;3.10;;;;;;;24.95;57.35;100508.32;107970;1244;59629;-68
2022/09/10 11:36:30;;;;;;;7.30;3.60;;;;;;;24.91;57.28;100504.47;107867;1244;61383;-67
2022/09/10 11:39:03;;;;;;;6.20;3.50;;;;;;;24.90;57.30;100497.70;107943;1244;64256;-67
2022/09/10 11:41:40;;;;;;;11.90;4.00;;;;;;;24.71;57.78;100502.46;109062;1244;61557;-71
2022/09/10 11:44:37;;;;;;;9.00;3.90;;;;;;;25.08;57.11;100503.27;107719;1244;70375;-69
2022/09/10 11:47:24;;;;;;;6.60;3.20;;;;;;;25.28;56.58;100500.45;108044;1244;64820;-71
2022/09/10 11:50:10;;;;;;;5.50;3.40;;;;;;;25.14;57.08;100499.85;107772;1244;59794;-73
2022/09/10 11:52:39;;;;;;;6.30;3.30;;;;;;;24.85;58.21;100487.02;107780;1244;59518;-74
2022/09/10 11:55:16;;;;;;;6.60;3.40;;;;;;;24.74;58.56;100484.95;107682;1244;74429;-71
2022/09/10 11:58:19;;;;;;;7.20;3.70;;;;;;;24.46;59.44;100475.83;107713;1244;72267;-72
2022/09/10 12:01:33;;;;;;;6.60;3.10;;;;;;;24.43;59.68;100474.35;108023;1244;60431;-71